createdAt,value
2017-06-30T00:01:01.072Z,16.50
2017-06-30T00:03:28.538Z,16.40
2017-06-30T00:05:56.006Z,16.40
2017-06-30T00:08:23.524Z,16.30
2017-06-30T00:10:51.022Z,16.30
2017-06-30T00:13:18.586Z,16.30
2017-06-30T00:15:46.049Z,16.30
2017-06-30T00:18:14.307Z,16.30
2017-06-30T00:20:41.857Z,16.30
2017-06-30T00:23:09.318Z,16.30
2017-06-30T00:25:36.783Z,16.30
2017-06-30T00:28:04.335Z,16.30
2017-06-30T00:30:31.802Z,16.30
2017-06-30T00:32:59.336Z,16.30
2017-06-30T00:35:26.793Z,16.30
2017-06-30T00:37:54.222Z,16.30
2017-06-30T00:40:21.699Z,16.40
2017-06-30T00:42:49.271Z,16.30
2017-06-30T00:45:16.816Z,16.30
2017-06-30T00:47:44.255Z,16.40
2017-06-30T00:50:11.736Z,16.40
2017-06-30T00:52:39.199Z,16.30
2017-06-30T00:55:06.750Z,16.30
2017-06-30T00:57:34.191Z,16.30
2017-06-30T01:00:01.728Z,16.20
2017-06-30T01:02:29.219Z,16.20
2017-06-30T01:04:56.676Z,16.20
2017-06-30T01:07:24.151Z,16.10
2017-06-30T01:09:51.692Z,16.10
2017-06-30T01:12:19.154Z,16.00
2017-06-30T01:14:46.726Z,16.00
2017-06-30T01:17:14.198Z,15.90
2017-06-30T01:19:41.723Z,15.90
2017-06-30T01:22:09.170Z,15.90
2017-06-30T01:24:36.655Z,15.80
2017-06-30T01:27:04.123Z,15.80
2017-06-30T01:29:32.345Z,15.70
2017-06-30T01:31:59.850Z,15.70
2017-06-30T01:34:27.478Z,15.70
2017-06-30T01:36:54.938Z,15.70
2017-06-30T01:39:22.394Z,15.70
2017-06-30T01:41:49.839Z,15.60
2017-06-30T01:44:17.282Z,15.60
2017-06-30T01:46:44.772Z,15.60
2017-06-30T01:49:12.210Z,15.60
2017-06-30T01:51:39.687Z,15.60
2017-06-30T01:54:07.163Z,15.60
2017-06-30T01:56:34.702Z,15.60
2017-06-30T01:59:02.140Z,15.50
2017-06-30T02:01:29.599Z,15.60
2017-06-30T02:03:57.062Z,15.50
2017-06-30T02:06:24.507Z,15.50
2017-06-30T02:08:51.950Z,15.50
2017-06-30T02:11:19.442Z,15.50
2017-06-30T02:13:46.891Z,15.40
2017-06-30T02:16:14.354Z,15.40
2017-06-30T02:18:41.791Z,15.40
2017-06-30T02:21:09.240Z,15.40
2017-06-30T02:23:36.710Z,15.30
2017-06-30T02:26:04.175Z,15.30
2017-06-30T02:28:31.629Z,15.30
2017-06-30T02:30:59.091Z,15.30
2017-06-30T02:33:26.534Z,15.30
2017-06-30T02:35:53.983Z,15.20
2017-06-30T02:38:21.468Z,15.20
2017-06-30T02:40:48.922Z,15.20
2017-06-30T02:43:16.459Z,15.20
2017-06-30T02:45:43.934Z,15.20
2017-06-30T02:48:11.507Z,15.20
2017-06-30T02:50:39.057Z,15.20
2017-06-30T02:53:06.595Z,15.20
2017-06-30T02:55:34.094Z,15.20
2017-06-30T02:58:01.611Z,15.10
2017-06-30T03:00:29.071Z,15.20
2017-06-30T03:02:56.566Z,15.20
2017-06-30T03:05:24.813Z,15.20
2017-06-30T03:07:52.362Z,15.10
2017-06-30T03:10:19.838Z,15.10
2017-06-30T03:12:47.392Z,15.10
2017-06-30T03:15:15.037Z,15.20
2017-06-30T03:17:42.570Z,15.20
2017-06-30T03:20:10.038Z,15.20
2017-06-30T03:22:37.503Z,15.20
2017-06-30T03:25:04.954Z,15.20
2017-06-30T03:27:32.409Z,15.20
2017-06-30T03:29:59.874Z,15.20
2017-06-30T03:32:27.308Z,15.20
2017-06-30T03:34:54.738Z,15.20
2017-06-30T03:37:22.172Z,15.20
2017-06-30T03:39:50.464Z,15.20
2017-06-30T03:42:17.994Z,15.10
2017-06-30T03:44:45.528Z,15.10
2017-06-30T03:47:12.984Z,15.10
2017-06-30T03:49:40.476Z,15.10
2017-06-30T03:52:08.715Z,15.10
2017-06-30T03:54:36.180Z,15.10
2017-06-30T03:57:03.619Z,15.20
2017-06-30T03:59:31.087Z,15.10
2017-06-30T04:01:58.668Z,15.10
2017-06-30T04:04:26.199Z,15.10
2017-06-30T04:06:53.693Z,15.20
2017-06-30T04:09:21.224Z,15.10
2017-06-30T04:11:48.661Z,15.10
2017-06-30T04:14:16.097Z,15.10
2017-06-30T04:16:43.578Z,15.10
2017-06-30T04:19:11.039Z,15.10
2017-06-30T04:21:39.401Z,15.10
2017-06-30T04:24:06.958Z,15.10
2017-06-30T04:26:34.463Z,15.10
2017-06-30T04:29:01.892Z,15.10
2017-06-30T04:31:29.382Z,15.10
2017-06-30T04:33:56.907Z,15.10
2017-06-30T04:36:24.459Z,15.10
2017-06-30T04:38:51.923Z,15.10
2017-06-30T04:41:19.391Z,15.10
2017-06-30T04:43:46.918Z,15.20
2017-06-30T04:46:14.409Z,15.20
2017-06-30T04:48:41.955Z,15.10
2017-06-30T04:51:09.422Z,15.20
2017-06-30T04:53:36.962Z,15.20
2017-06-30T04:56:04.401Z,15.20
2017-06-30T04:58:31.898Z,15.20
2017-06-30T05:00:59.342Z,15.30
2017-06-30T05:03:26.788Z,15.20
2017-06-30T05:05:54.348Z,15.20
2017-06-30T05:08:21.825Z,15.30
2017-06-30T05:10:49.262Z,15.30
2017-06-30T05:13:16.735Z,15.30
2017-06-30T05:15:44.187Z,15.30
2017-06-30T05:18:11.630Z,15.30
2017-06-30T05:20:39.059Z,15.30
2017-06-30T05:23:06.624Z,15.30
2017-06-30T05:25:34.074Z,15.30
2017-06-30T05:28:01.538Z,15.30
2017-06-30T05:30:29.027Z,15.30
2017-06-30T05:32:56.562Z,15.30
2017-06-30T05:35:23.986Z,15.30
2017-06-30T05:37:51.674Z,15.30
2017-06-30T05:40:19.100Z,15.30
2017-06-30T05:42:46.539Z,15.40
2017-06-30T05:45:14.769Z,15.40
2017-06-30T05:47:42.226Z,15.30
2017-06-30T05:50:09.734Z,15.40
2017-06-30T05:52:37.966Z,15.40
2017-06-30T05:55:05.418Z,15.40
2017-06-30T05:57:32.912Z,15.40
2017-06-30T06:00:00.443Z,15.40
2017-06-30T06:02:27.884Z,15.30
2017-06-30T06:04:55.324Z,15.30
2017-06-30T06:07:22.777Z,15.30
2017-06-30T06:09:50.270Z,15.30
2017-06-30T06:12:17.711Z,15.30
2017-06-30T06:14:45.178Z,15.40
2017-06-30T06:17:12.635Z,15.40
2017-06-30T06:19:40.099Z,15.40
2017-06-30T06:22:07.564Z,15.40
2017-06-30T06:24:35.022Z,15.50
2017-06-30T06:27:02.575Z,15.40
2017-06-30T06:29:30.010Z,15.50
2017-06-30T06:31:57.476Z,15.50
2017-06-30T06:34:24.958Z,15.50
2017-06-30T06:36:53.178Z,15.50
2017-06-30T06:39:20.622Z,15.40
2017-06-30T06:41:48.075Z,15.50
2017-06-30T06:44:15.503Z,15.60
2017-06-30T06:46:43.824Z,15.60
2017-06-30T06:49:11.296Z,15.50
2017-06-30T06:51:38.762Z,15.60
2017-06-30T06:54:06.247Z,15.60
2017-06-30T06:56:34.573Z,15.60
2017-06-30T06:59:02.130Z,15.60
2017-06-30T07:01:29.548Z,15.60
2017-06-30T07:03:57.779Z,15.60
2017-06-30T07:06:25.242Z,15.50
2017-06-30T07:08:52.701Z,15.60
2017-06-30T07:11:20.153Z,15.60
2017-06-30T07:13:47.593Z,15.60
2017-06-30T07:16:15.028Z,15.60
2017-06-30T07:18:42.542Z,15.60
2017-06-30T07:21:09.999Z,15.60
2017-06-30T07:23:37.536Z,15.60
2017-06-30T07:26:04.982Z,15.60
2017-06-30T07:28:32.445Z,15.60
2017-06-30T07:30:59.981Z,15.60
2017-06-30T07:33:27.463Z,15.60
2017-06-30T07:35:54.919Z,15.60
2017-06-30T07:38:22.413Z,15.60
2017-06-30T07:40:49.936Z,15.70
2017-06-30T07:43:17.365Z,15.70
2017-06-30T07:45:44.814Z,15.70
2017-06-30T07:48:12.261Z,15.70
2017-06-30T07:50:39.690Z,15.70
2017-06-30T07:53:07.937Z,15.60
2017-06-30T07:55:35.403Z,15.60
2017-06-30T07:58:02.852Z,15.70
2017-06-30T08:00:30.316Z,15.60
2017-06-30T08:02:57.738Z,15.70
2017-06-30T08:05:25.203Z,15.70
2017-06-30T08:07:52.748Z,15.70
2017-06-30T08:10:20.172Z,15.70
2017-06-30T08:12:47.674Z,15.70
2017-06-30T08:15:15.164Z,15.80
2017-06-30T08:17:42.694Z,15.80
2017-06-30T08:20:10.151Z,15.80
2017-06-30T08:22:37.607Z,15.80
2017-06-30T08:25:05.053Z,15.70
2017-06-30T08:27:32.505Z,15.80
2017-06-30T08:29:59.988Z,15.80
2017-06-30T08:32:27.438Z,15.70
2017-06-30T08:34:54.898Z,15.70
2017-06-30T08:37:23.141Z,15.80
2017-06-30T08:39:50.723Z,15.80
2017-06-30T08:42:18.203Z,15.80
2017-06-30T08:44:45.675Z,15.80
2017-06-30T08:47:13.191Z,15.80
2017-06-30T08:49:40.656Z,15.80
2017-06-30T08:52:08.189Z,15.80
2017-06-30T08:54:35.669Z,15.80
2017-06-30T08:57:03.223Z,15.80
2017-06-30T08:59:30.687Z,15.80
2017-06-30T09:01:58.110Z,15.80
2017-06-30T09:04:25.705Z,15.80
2017-06-30T09:06:53.188Z,15.80
2017-06-30T09:09:21.403Z,15.80
2017-06-30T09:11:48.840Z,15.80
2017-06-30T09:14:16.299Z,15.90
2017-06-30T09:16:43.991Z,15.90
2017-06-30T09:19:11.408Z,15.80
2017-06-30T09:21:39.005Z,15.90
2017-06-30T09:24:06.863Z,16.00
2017-06-30T09:26:35.235Z,16.00
2017-06-30T09:29:02.653Z,15.90
2017-06-30T09:31:31.026Z,16.00
2017-06-30T09:33:59.247Z,15.90
2017-06-30T09:36:26.718Z,15.90
2017-06-30T09:38:54.182Z,16.00
2017-06-30T09:41:21.638Z,16.10
2017-06-30T09:43:49.171Z,16.00
2017-06-30T09:46:16.598Z,16.00
2017-06-30T09:48:44.086Z,16.00
2017-06-30T09:51:11.746Z,16.00
2017-06-30T09:53:39.167Z,16.00
2017-06-30T09:56:07.483Z,15.90
2017-06-30T09:58:34.958Z,15.90
2017-06-30T10:01:02.512Z,15.90
2017-06-30T10:03:29.974Z,15.90
2017-06-30T10:05:57.461Z,15.80
2017-06-30T10:08:25.707Z,15.80
2017-06-30T10:10:53.256Z,15.80
2017-06-30T10:13:20.743Z,15.80
2017-06-30T10:15:48.320Z,15.80
2017-06-30T10:18:16.519Z,15.80
2017-06-30T10:20:43.979Z,15.80
2017-06-30T10:23:11.419Z,15.80
2017-06-30T10:25:39.615Z,15.90
2017-06-30T10:28:07.087Z,15.80
2017-06-30T10:30:34.560Z,15.90
2017-06-30T10:33:03.102Z,15.90
2017-06-30T10:35:30.583Z,15.90
2017-06-30T10:37:58.036Z,15.80
2017-06-30T10:40:25.470Z,15.80
2017-06-30T10:42:53.019Z,15.70
2017-06-30T10:45:20.637Z,15.70
2017-06-30T10:47:48.112Z,15.70
2017-06-30T10:50:15.599Z,15.60
2017-06-30T10:52:43.098Z,15.60
2017-06-30T10:55:10.626Z,15.60
2017-06-30T10:57:38.080Z,15.70
2017-06-30T11:00:05.527Z,15.60
2017-06-30T11:02:32.986Z,15.60
2017-06-30T11:05:00.466Z,15.60
2017-06-30T11:07:27.935Z,15.60
2017-06-30T11:09:55.407Z,15.60
2017-06-30T11:12:22.843Z,15.50
2017-06-30T11:14:50.419Z,15.60
2017-06-30T11:17:19.267Z,15.60
2017-06-30T11:19:46.783Z,15.70
2017-06-30T11:22:15.035Z,15.60
2017-06-30T11:24:42.589Z,15.50
2017-06-30T11:27:10.039Z,15.60
2017-06-30T11:29:37.674Z,15.60
2017-06-30T11:32:05.164Z,15.60
2017-06-30T11:34:32.583Z,15.60
2017-06-30T11:37:00.143Z,15.60
2017-06-30T11:39:27.645Z,15.50
2017-06-30T11:41:55.087Z,15.50
2017-06-30T11:44:22.618Z,15.50
2017-06-30T11:46:50.103Z,15.50
2017-06-30T11:49:17.659Z,15.40
2017-06-30T11:51:45.191Z,15.40
2017-06-30T11:54:12.682Z,15.40
2017-06-30T11:56:40.117Z,15.50
2017-06-30T11:59:07.770Z,15.50
2017-06-30T12:01:35.222Z,15.50
2017-06-30T12:04:02.779Z,15.50
2017-06-30T12:06:30.263Z,15.50
2017-06-30T12:08:57.703Z,15.50
2017-06-30T12:11:25.163Z,15.50
2017-06-30T12:13:52.607Z,15.40
2017-06-30T12:16:20.056Z,15.40
2017-06-30T12:18:47.536Z,15.40
2017-06-30T12:21:14.988Z,15.40
2017-06-30T12:23:42.452Z,15.30
2017-06-30T12:26:09.948Z,15.40
2017-06-30T12:28:38.210Z,15.30
2017-06-30T12:31:06.670Z,15.30
2017-06-30T12:33:34.154Z,15.30
2017-06-30T12:36:01.618Z,15.30
2017-06-30T12:38:29.875Z,15.40
2017-06-30T12:40:57.330Z,15.30
2017-06-30T12:43:24.773Z,15.40
2017-06-30T12:45:52.231Z,15.40
2017-06-30T12:48:19.687Z,15.50
2017-06-30T12:50:47.133Z,15.50
2017-06-30T12:53:14.618Z,15.60
2017-06-30T12:55:42.059Z,15.60
2017-06-30T12:58:09.580Z,15.70
2017-06-30T13:00:37.092Z,15.60
2017-06-30T13:03:04.943Z,15.70
2017-06-30T13:05:32.402Z,15.70
2017-06-30T13:07:59.983Z,15.70
2017-06-30T13:10:28.217Z,15.70
2017-06-30T13:12:55.743Z,15.70
2017-06-30T13:15:23.267Z,15.70
2017-06-30T13:17:51.463Z,15.70
2017-06-30T13:20:18.986Z,15.60
2017-06-30T13:22:46.500Z,15.70
2017-06-30T13:25:13.946Z,15.70
2017-06-30T13:27:41.396Z,15.80
2017-06-30T13:30:08.884Z,15.90
2017-06-30T13:32:36.322Z,15.80
2017-06-30T13:35:04.554Z,15.50
2017-06-30T13:37:32.014Z,15.50
2017-06-30T13:39:59.462Z,15.50
2017-06-30T13:42:26.989Z,15.60
2017-06-30T13:44:54.499Z,15.60
2017-06-30T13:47:21.933Z,15.60
2017-06-30T13:49:49.364Z,15.60
2017-06-30T13:52:16.831Z,15.60
2017-06-30T13:54:44.326Z,15.60
2017-06-30T13:57:11.849Z,15.70
2017-06-30T13:59:39.310Z,15.70
2017-06-30T14:02:06.800Z,15.70
2017-06-30T14:04:34.243Z,15.70
2017-06-30T14:07:01.874Z,15.70
2017-06-30T14:09:29.438Z,15.60
2017-06-30T14:11:56.943Z,15.60
2017-06-30T14:14:24.376Z,15.50
2017-06-30T14:16:51.826Z,15.60
2017-06-30T14:19:19.263Z,15.70
2017-06-30T14:21:46.714Z,15.70
2017-06-30T14:24:14.208Z,15.70
2017-06-30T14:26:41.719Z,15.70
2017-06-30T14:29:09.221Z,15.70
2017-06-30T14:31:36.680Z,15.60
2017-06-30T14:34:04.130Z,15.60
2017-06-30T14:36:31.575Z,15.60
2017-06-30T14:38:59.026Z,15.60
2017-06-30T14:41:26.470Z,15.60
2017-06-30T14:43:53.947Z,15.60
2017-06-30T14:46:21.367Z,15.60
2017-06-30T14:48:48.823Z,15.50
2017-06-30T14:51:16.287Z,15.60
2017-06-30T14:53:43.794Z,15.60
2017-06-30T14:56:11.358Z,15.50
2017-06-30T14:58:38.891Z,15.50
2017-06-30T15:01:06.343Z,15.60
2017-06-30T15:03:33.906Z,15.60
2017-06-30T15:06:01.370Z,15.60
2017-06-30T15:08:28.806Z,15.60
2017-06-30T15:10:56.311Z,15.60
2017-06-30T15:13:24.515Z,15.70
2017-06-30T15:15:52.036Z,15.60
2017-06-30T15:18:19.563Z,15.60
2017-06-30T15:20:47.033Z,15.60
2017-06-30T15:23:14.468Z,15.60
2017-06-30T15:25:41.942Z,15.60
2017-06-30T15:28:09.396Z,15.60
2017-06-30T15:30:36.830Z,15.60
2017-06-30T15:33:04.278Z,15.60
2017-06-30T15:35:31.746Z,15.50
2017-06-30T15:37:59.214Z,15.50
2017-06-30T15:40:26.679Z,15.60
2017-06-30T15:42:54.229Z,15.60
2017-06-30T15:45:21.763Z,15.60
2017-06-30T15:47:49.188Z,15.60
2017-06-30T15:50:16.784Z,15.60
2017-06-30T15:52:44.266Z,15.50
2017-06-30T15:55:11.795Z,15.50
2017-06-30T15:57:39.353Z,15.50
2017-06-30T16:00:06.791Z,15.50
2017-06-30T16:02:34.400Z,15.60
2017-06-30T16:05:01.831Z,15.60
2017-06-30T16:07:29.275Z,15.70
2017-06-30T16:09:56.765Z,15.60
2017-06-30T16:12:24.603Z,15.50
2017-06-30T16:14:52.878Z,15.60
2017-06-30T16:17:20.810Z,15.60
2017-06-30T16:19:49.086Z,15.60
2017-06-30T16:22:17.195Z,15.60
2017-06-30T16:24:45.671Z,15.50
2017-06-30T16:27:13.560Z,15.40
2017-06-30T16:29:42.694Z,15.50
2017-06-30T16:32:10.602Z,15.40
2017-06-30T16:34:38.671Z,15.50
2017-06-30T16:37:06.640Z,15.50
2017-06-30T16:39:35.380Z,15.50
2017-06-30T16:42:03.396Z,15.40
2017-06-30T16:44:31.464Z,15.40
2017-06-30T16:46:59.503Z,15.30
2017-06-30T16:49:27.812Z,15.30
2017-06-30T16:51:55.843Z,15.20
2017-06-30T16:54:24.669Z,15.20
2017-06-30T16:56:53.076Z,15.20
2017-06-30T16:59:20.552Z,15.10
2017-06-30T17:01:48.224Z,15.20
2017-06-30T17:04:15.723Z,15.20
2017-06-30T17:06:43.284Z,15.20
2017-06-30T17:09:10.754Z,15.30
2017-06-30T17:11:38.418Z,15.30
2017-06-30T17:14:05.992Z,15.30
2017-06-30T17:16:33.459Z,15.30
2017-06-30T17:19:00.891Z,15.30
2017-06-30T17:21:28.378Z,15.40
2017-06-30T17:23:55.815Z,15.50
2017-06-30T17:26:23.293Z,15.60
2017-06-30T17:28:50.717Z,15.60
2017-06-30T17:31:18.165Z,15.60
2017-06-30T17:33:45.645Z,15.60
2017-06-30T17:36:13.266Z,15.60
2017-06-30T17:38:40.766Z,15.60
2017-06-30T17:41:08.215Z,15.60
2017-06-30T17:43:35.759Z,15.60
2017-06-30T17:46:03.307Z,15.60
2017-06-30T17:48:30.770Z,15.60
2017-06-30T17:50:58.245Z,15.50
2017-06-30T17:53:25.773Z,15.50
2017-06-30T17:55:53.375Z,15.50
2017-06-30T18:00:28.767Z,15.60
2017-06-30T18:02:56.235Z,15.50
2017-06-30T18:05:23.679Z,15.50
2017-06-30T18:07:51.126Z,15.50
2017-06-30T18:10:18.645Z,15.40
2017-06-30T18:12:46.092Z,15.40
2017-06-30T18:15:13.542Z,15.40
2017-06-30T18:17:41.125Z,15.30
2017-06-30T18:20:08.558Z,15.30
2017-06-30T18:22:36.018Z,15.20
2017-06-30T18:25:03.643Z,15.20
2017-06-30T18:27:31.290Z,15.30
2017-06-30T18:29:58.779Z,15.30
2017-06-30T18:32:26.243Z,15.20
2017-06-30T18:34:53.721Z,15.20
2017-06-30T18:37:21.155Z,15.20
2017-06-30T18:39:48.610Z,15.10
2017-06-30T18:42:16.063Z,15.20
2017-06-30T18:44:43.550Z,15.20
2017-06-30T18:47:10.979Z,15.20
2017-06-30T18:49:38.515Z,15.10
2017-06-30T18:52:05.973Z,15.10
2017-06-30T18:54:33.496Z,15.10
2017-06-30T18:57:00.945Z,15.10
2017-06-30T18:59:29.186Z,15.00
2017-06-30T19:01:56.651Z,15.00
2017-06-30T19:04:24.096Z,15.00
2017-06-30T19:06:51.755Z,15.00
2017-06-30T19:09:19.244Z,15.00
2017-06-30T19:11:47.488Z,14.90
2017-06-30T19:14:14.992Z,14.90
2017-06-30T19:16:43.207Z,14.90
2017-06-30T19:19:10.651Z,14.90
2017-06-30T19:21:38.122Z,14.90
2017-06-30T19:24:05.913Z,14.90
2017-06-30T19:26:33.366Z,14.90
2017-06-30T19:29:00.818Z,15.00
2017-06-30T19:31:28.301Z,15.00
2017-06-30T19:33:55.756Z,14.90
2017-06-30T19:36:24.176Z,15.00
2017-06-30T19:38:51.657Z,14.90
2017-06-30T19:41:19.112Z,15.00
2017-06-30T19:43:46.646Z,15.10
2017-06-30T19:46:14.163Z,15.00
2017-06-30T19:48:42.483Z,15.00
2017-06-30T19:51:09.944Z,14.90
2017-06-30T19:53:37.523Z,14.90
2017-06-30T19:56:05.156Z,14.90
2017-06-30T19:58:32.730Z,14.90
2017-06-30T20:01:00.183Z,14.90
2017-06-30T20:03:27.710Z,14.90
2017-06-30T20:05:55.227Z,14.80
2017-06-30T20:08:22.839Z,14.80
2017-06-30T20:10:50.295Z,14.90
2017-06-30T20:13:17.784Z,14.80
2017-06-30T20:15:45.269Z,14.70
2017-06-30T20:18:12.876Z,14.70
2017-06-30T20:20:40.371Z,14.70
2017-06-30T20:23:07.836Z,14.70
2017-06-30T20:25:35.313Z,14.60
2017-06-30T20:28:02.786Z,14.60
2017-06-30T20:30:30.214Z,14.60
2017-06-30T20:32:58.499Z,14.60
2017-06-30T20:35:26.762Z,14.60
2017-06-30T20:37:54.323Z,14.50
2017-06-30T20:40:22.550Z,14.60
2017-06-30T20:42:50.018Z,14.60
2017-06-30T20:45:17.482Z,14.60
2017-06-30T20:47:44.931Z,14.60
2017-06-30T20:50:12.396Z,14.60
2017-06-30T20:52:39.830Z,14.60
2017-06-30T20:55:07.319Z,14.70
2017-06-30T20:57:34.750Z,14.70
2017-06-30T21:00:02.227Z,14.70
2017-06-30T21:02:29.668Z,14.80
2017-06-30T21:04:57.131Z,14.80
2017-06-30T21:07:24.608Z,14.80
2017-06-30T21:09:52.219Z,14.80
2017-06-30T21:12:19.691Z,14.80
2017-06-30T21:14:47.236Z,14.80
2017-06-30T21:17:14.734Z,14.90
2017-06-30T21:19:42.270Z,14.80
2017-06-30T21:22:09.730Z,14.80
2017-06-30T21:24:37.190Z,14.90
2017-06-30T21:27:04.796Z,14.80
2017-06-30T21:29:33.019Z,14.80
2017-06-30T21:32:00.483Z,14.80
2017-06-30T21:34:27.963Z,14.70
2017-06-30T21:36:56.223Z,14.70
2017-06-30T21:39:23.768Z,14.70
2017-06-30T21:41:51.210Z,14.80
2017-06-30T21:44:18.659Z,14.80
2017-06-30T21:46:46.159Z,14.80
2017-06-30T21:49:13.697Z,14.80
2017-06-30T21:51:41.150Z,14.80
2017-06-30T21:54:08.592Z,14.80
2017-06-30T21:56:36.067Z,14.80
2017-06-30T21:59:03.518Z,14.70
2017-06-30T22:01:31.062Z,14.70
2017-06-30T22:03:58.503Z,14.60
2017-06-30T22:06:25.990Z,14.60
2017-06-30T22:08:53.462Z,14.60
2017-06-30T22:11:20.958Z,14.50
2017-06-30T22:13:48.438Z,14.50
2017-06-30T22:16:15.918Z,14.40
2017-06-30T22:18:43.401Z,14.40
2017-06-30T22:21:10.849Z,14.40
2017-06-30T22:23:38.297Z,14.40
2017-06-30T22:26:05.750Z,14.50
2017-06-30T22:28:33.282Z,14.60
2017-06-30T22:31:00.715Z,14.70
2017-06-30T22:33:28.160Z,14.80
2017-06-30T22:35:55.695Z,14.70
2017-06-30T22:38:23.348Z,14.70
2017-06-30T22:40:50.802Z,14.60
2017-06-30T22:43:18.242Z,14.60
2017-06-30T22:45:45.688Z,14.50
2017-06-30T22:48:13.254Z,14.50
2017-06-30T22:50:40.711Z,14.40
2017-06-30T22:53:08.174Z,14.40
2017-06-30T22:55:35.633Z,14.40
2017-06-30T22:58:03.110Z,14.40
2017-06-30T23:00:30.770Z,14.40
2017-06-30T23:02:58.280Z,14.50
2017-06-30T23:05:25.757Z,14.50
2017-06-30T23:07:53.215Z,14.50
2017-06-30T23:10:20.680Z,14.50
2017-06-30T23:12:48.111Z,14.40
2017-06-30T23:15:15.703Z,14.40
2017-06-30T23:17:43.246Z,14.40
2017-06-30T23:20:10.694Z,14.50
2017-06-30T23:22:38.161Z,14.50
2017-06-30T23:25:05.608Z,14.50
2017-06-30T23:27:33.055Z,14.50
2017-06-30T23:30:00.619Z,14.50
2017-06-30T23:32:28.106Z,14.50
2017-06-30T23:34:55.647Z,14.50
2017-06-30T23:37:23.118Z,14.50
2017-06-30T23:39:50.582Z,14.50
2017-06-30T23:42:18.026Z,14.50
2017-06-30T23:44:45.575Z,14.50
2017-06-30T23:47:13.034Z,14.50
2017-06-30T23:49:40.515Z,14.50
2017-06-30T23:52:08.750Z,14.50
2017-06-30T23:54:36.236Z,14.50
2017-06-30T23:57:03.797Z,14.50
2017-06-30T23:59:31.351Z,14.50
